Saint Simons Island, Georgia
Current Conditions -  °F | °C
As of 1:53 AM on Friday 19 Dec 2014 (Local Time) from KSSI Reporting Station
Clear Clear  
Wind Chill:   Ceiling: Unl
Heat Index:   Visibility: 10mi
Dew Point:   Wind: 3mph
Humidity: 83%   Direction: 280°W
Pressure: 30.11"   Gusts: NA
Location:  31.15°N, 81.38°W
Report Text: KSSI 190653Z AUTO 28003KT 10SM CLR 08/06 A3011 RMK AO2 SLP194 T00830056
Loading
Personal Weather Stations






























Interactive Weather Map New forecast layout! Learn more

10-Day Weather Forecast

Advertisements
Track Severe Weather on mobile